createdAt,value
2019-04-05T00:00:25.998Z,2.97
2019-04-05T00:05:31.097Z,2.83
2019-04-05T00:10:35.621Z,3.37
2019-04-05T00:15:40.478Z,3.23
2019-04-05T00:20:45.006Z,2.13
2019-04-05T00:25:50.376Z,3.07
2019-04-05T00:30:54.936Z,3.10
2019-04-05T00:36:00.004Z,3.03
2019-04-05T00:41:04.539Z,3.00
2019-04-05T00:46:09.849Z,3.20
2019-04-05T00:51:14.389Z,3.17
2019-04-05T00:56:19.892Z,3.07
2019-04-05T01:01:24.440Z,3.07
2019-04-05T01:06:29.446Z,2.73
2019-04-05T01:11:34.060Z,3.03
2019-04-05T01:16:39.482Z,3.30
2019-04-05T01:21:45.650Z,3.43
2019-04-05T01:26:50.686Z,2.87
2019-04-05T01:31:55.264Z,3.90
2019-04-05T01:37:00.713Z,3.20
2019-04-05T01:42:05.258Z,3.23
2019-04-05T01:47:09.874Z,3.17
2019-04-05T01:52:14.429Z,3.07
2019-04-05T01:57:19.706Z,3.67
2019-04-05T02:02:24.483Z,3.03
2019-04-05T02:07:29.288Z,3.20
2019-04-05T02:12:36.058Z,2.73
2019-04-05T02:17:40.941Z,3.50
2019-04-05T02:22:45.470Z,3.60
2019-04-05T02:27:50.197Z,4.20
2019-04-05T02:32:54.987Z,3.83
2019-04-05T02:38:00.633Z,4.00
2019-04-05T02:43:05.232Z,4.10
2019-04-05T02:48:11.135Z,3.63
2019-04-05T02:53:15.747Z,3.57
2019-04-05T02:58:21.633Z,3.73
2019-04-05T03:03:26.191Z,4.13
2019-04-05T03:08:30.735Z,3.73
2019-04-05T03:13:36.285Z,4.13
2019-04-05T03:18:42.542Z,4.03
2019-04-05T03:23:47.153Z,4.00
2019-04-05T03:28:52.442Z,4.20
2019-04-05T03:33:57.061Z,3.90
2019-04-05T03:39:01.928Z,4.03
2019-04-05T03:44:07.141Z,3.57
2019-04-05T03:49:11.729Z,3.80
2019-04-05T03:54:16.249Z,4.40
2019-04-05T03:59:20.809Z,4.20
2019-04-05T04:04:25.430Z,4.33
2019-04-05T04:09:29.971Z,4.10
2019-04-05T04:14:34.524Z,4.10
2019-04-05T04:19:39.059Z,4.57
2019-04-05T04:24:43.589Z,4.03
2019-04-05T04:29:48.115Z,4.37
2019-04-05T04:34:52.693Z,3.87
2019-04-05T04:39:57.349Z,4.77
2019-04-05T04:45:11.816Z,4.40
2019-04-05T04:50:08.417Z,4.03
2019-04-05T04:55:13.006Z,3.63
2019-04-05T05:00:17.567Z,4.93
2019-04-05T05:05:22.174Z,4.60
2019-04-05T05:10:26.786Z,4.07
2019-04-05T05:15:31.483Z,5.00
2019-04-05T05:20:36.062Z,5.00
2019-04-05T05:25:40.614Z,4.97
2019-04-05T05:30:45.158Z,4.33
2019-04-05T05:35:50.689Z,5.27
2019-04-05T05:40:55.234Z,4.77
2019-04-05T05:45:59.858Z,5.17
2019-04-05T05:51:04.455Z,5.27
2019-04-05T05:56:09.000Z,4.90
2019-04-05T06:01:13.545Z,5.10
2019-04-05T06:06:18.096Z,5.47
2019-04-05T06:11:22.806Z,4.53
2019-04-05T06:16:27.324Z,5.67
2019-04-05T06:21:32.023Z,4.50
2019-04-05T06:26:36.584Z,5.67
2019-04-05T06:31:41.157Z,5.80
2019-04-05T06:36:45.709Z,5.23
2019-04-05T06:41:50.277Z,4.93
2019-04-05T06:46:54.842Z,5.40
2019-04-05T06:51:59.396Z,5.43
2019-04-05T06:57:03.960Z,4.77
2019-04-05T07:02:08.522Z,3.97
2019-04-05T07:07:13.078Z,5.03
2019-04-05T07:12:20.423Z,5.27
2019-04-05T07:17:24.162Z,4.93
2019-04-05T07:22:38.523Z,4.27
2019-04-05T07:27:35.162Z,3.60
2019-04-05T07:32:39.757Z,4.73
2019-04-05T07:37:44.314Z,5.73
2019-04-05T07:42:48.970Z,5.90
2019-04-05T07:47:53.606Z,4.93
2019-04-05T07:52:58.135Z,5.20
2019-04-05T07:58:03.575Z,5.43
2019-04-05T08:03:08.118Z,5.03
2019-04-05T08:08:15.177Z,6.10
2019-04-05T08:13:19.850Z,6.37
2019-04-05T08:18:24.441Z,4.97
2019-04-05T08:23:29.000Z,4.47
2019-04-05T08:28:34.412Z,3.97
2019-04-05T08:33:38.960Z,4.70
2019-04-05T08:38:44.551Z,3.57
2019-04-05T08:43:50.733Z,4.63
2019-04-05T08:48:55.359Z,6.60
2019-04-05T08:54:00.006Z,4.87
2019-04-05T08:59:04.787Z,3.93
2019-04-05T09:04:09.372Z,5.53
2019-04-05T09:09:14.711Z,5.10
2019-04-05T09:14:20.951Z,7.10
2019-04-05T09:19:26.693Z,7.77
2019-04-05T09:24:31.322Z,7.00
2019-04-05T09:29:36.537Z,7.63
2019-04-05T09:34:41.217Z,6.37
2019-04-05T09:39:46.696Z,6.70
2019-04-05T09:44:51.250Z,7.27
2019-04-05T09:49:56.202Z,6.67
2019-04-05T09:55:00.935Z,6.53
2019-04-05T10:00:06.755Z,6.17
2019-04-05T10:05:12.338Z,7.33
2019-04-05T10:10:17.217Z,7.53
2019-04-05T10:15:24.542Z,7.07
2019-04-05T10:20:29.489Z,8.80
2019-04-05T10:25:34.461Z,7.80
2019-04-05T10:30:40.102Z,7.53
2019-04-05T10:35:44.797Z,7.70
2019-04-05T10:40:49.818Z,9.03
2019-04-05T10:45:54.597Z,8.00
2019-04-05T10:50:59.542Z,6.40
2019-04-05T10:56:04.159Z,7.10
2019-04-05T11:01:08.904Z,6.90
2019-04-05T11:06:13.607Z,8.90
2019-04-05T11:11:18.872Z,7.73
2019-04-05T11:16:23.499Z,6.90
2019-04-05T11:21:28.040Z,8.37
2019-04-05T11:26:32.695Z,8.10
2019-04-05T11:31:37.867Z,8.37
2019-04-05T11:36:44.146Z,8.17
2019-04-05T11:41:49.010Z,3.70
2019-04-05T11:46:55.605Z,10.37
2019-04-05T11:52:01.194Z,8.00
2019-04-05T11:57:05.761Z,8.03
2019-04-05T12:02:27.165Z,7.30
2019-04-05T12:07:31.945Z,8.67
2019-04-05T12:12:38.422Z,9.00
2019-04-05T12:17:42.974Z,9.40
2019-04-05T12:22:47.658Z,9.37
2019-04-05T12:28:00.317Z,9.23
2019-04-05T12:32:59.044Z,6.23
2019-04-05T12:38:06.965Z,5.97
2019-04-05T12:43:13.530Z,8.70
2019-04-05T12:48:18.896Z,8.20
2019-04-05T12:53:26.900Z,9.00
2019-04-05T12:58:32.699Z,8.37
2019-04-05T13:03:41.108Z,7.37
2019-04-05T13:08:45.803Z,8.70
2019-04-05T13:13:57.256Z,8.33
2019-04-05T13:19:03.155Z,8.17
2019-04-05T13:24:10.926Z,8.67
2019-04-05T13:29:17.611Z,7.83
2019-04-05T13:34:26.021Z,8.83
2019-04-05T13:39:34.254Z,8.90
2019-04-05T13:44:39.546Z,7.67
2019-04-05T13:49:44.162Z,7.53
2019-04-05T13:54:49.542Z,8.70
2019-04-05T13:59:54.125Z,8.87
2019-04-05T14:05:00.066Z,7.03
2019-04-05T14:10:06.037Z,8.40
2019-04-05T14:15:12.181Z,8.37
2019-04-05T14:20:19.578Z,8.27
2019-04-05T14:25:25.685Z,8.00
2019-04-05T14:30:32.902Z,9.10
2019-04-05T14:35:37.621Z,6.03
2019-04-05T14:40:42.177Z,5.87
2019-04-05T14:45:48.234Z,7.33
2019-04-05T14:50:52.828Z,8.70
2019-04-05T14:55:59.293Z,7.33
2019-04-05T15:01:04.430Z,8.03
2019-04-05T15:06:09.706Z,8.00
2019-04-05T15:11:15.463Z,6.57
2019-04-05T15:16:23.271Z,9.03
2019-04-05T15:21:26.524Z,7.47
2019-04-05T15:26:31.959Z,8.43
2019-04-05T15:31:36.617Z,8.43
2019-04-05T15:36:41.680Z,8.00
2019-04-05T15:41:46.359Z,7.43
2019-04-05T15:46:51.145Z,7.53
2019-04-05T15:51:58.735Z,9.43
2019-04-05T15:57:04.379Z,6.77
2019-04-05T16:02:09.163Z,10.00
2019-04-05T16:07:14.389Z,6.27
2019-04-05T16:12:18.919Z,9.30
2019-04-05T16:17:24.149Z,8.20
2019-04-05T16:22:31.402Z,8.43
2019-04-05T16:27:35.644Z,10.13
2019-04-05T16:32:40.712Z,10.20
2019-04-05T16:37:46.195Z,9.33
2019-04-05T16:43:01.696Z,7.10
2019-04-05T16:47:57.570Z,8.57
2019-04-05T16:53:02.122Z,8.60
2019-04-05T16:58:06.902Z,9.10
2019-04-05T17:03:11.536Z,8.97
2019-04-05T17:08:16.376Z,8.97
2019-04-05T17:13:20.992Z,8.50
2019-04-05T17:18:26.293Z,7.97
2019-04-05T17:23:33.184Z,7.13
2019-04-05T17:28:37.542Z,8.37
2019-04-05T17:33:42.103Z,7.47
2019-04-05T17:38:48.638Z,6.90
2019-04-05T17:43:53.538Z,7.40
2019-04-05T17:48:58.522Z,7.53
2019-04-05T17:54:03.714Z,8.10
2019-04-05T17:59:08.768Z,9.00
2019-04-05T18:04:13.632Z,6.07
2019-04-05T18:09:18.343Z,9.33
2019-04-05T18:14:22.933Z,6.77
2019-04-05T18:19:29.560Z,17.87
2019-04-05T18:24:34.279Z,27.93
2019-04-05T18:29:40.102Z,31.90
2019-04-05T18:34:45.276Z,21.70
2019-04-05T18:39:52.755Z,28.93
2019-04-05T18:44:57.334Z,30.20
2019-04-05T18:50:03.646Z,28.03
2019-04-05T18:55:08.280Z,31.50
2019-04-05T19:00:12.928Z,28.67
2019-04-05T19:05:17.545Z,29.60
2019-04-05T19:10:36.221Z,29.40
2019-04-05T19:15:29.459Z,30.63
2019-04-05T19:20:36.828Z,31.23
2019-04-05T19:25:40.385Z,31.27
2019-04-05T19:51:15.578Z,27.27
2019-04-05T19:56:20.182Z,28.83
2019-04-05T20:01:26.097Z,29.30
2019-04-05T20:06:30.737Z,29.10
2019-04-05T20:11:37.019Z,28.23
2019-04-05T20:16:41.569Z,27.57
2019-04-05T20:21:46.234Z,30.60
2019-04-05T20:26:50.984Z,27.80
2019-04-05T20:31:56.155Z,25.63
2019-04-05T20:37:00.709Z,21.33
2019-04-05T20:42:06.883Z,18.73
2019-04-05T20:47:11.448Z,22.77
2019-04-05T20:52:16.012Z,17.30
2019-04-05T20:57:20.639Z,18.80
2019-04-05T21:02:25.282Z,21.00
2019-04-05T21:07:29.888Z,13.07
2019-04-05T21:12:34.541Z,13.60
2019-04-05T21:17:39.117Z,13.87
2019-04-05T21:22:43.656Z,14.67
2019-04-05T21:27:48.579Z,13.00
2019-04-05T21:32:53.128Z,10.47
2019-04-05T21:37:57.681Z,25.37
2019-04-05T21:43:02.246Z,24.83
2019-04-05T21:48:06.801Z,31.23
2019-04-05T21:53:11.360Z,26.47
2019-04-05T21:58:16.022Z,18.57
2019-04-05T22:03:21.806Z,18.57
2019-04-05T22:08:26.449Z,18.63
2019-04-05T22:13:32.457Z,17.57
2019-04-05T22:18:37.090Z,24.87
2019-04-05T22:23:42.636Z,16.70
2019-04-05T22:28:47.175Z,20.00
2019-04-05T22:33:52.869Z,20.43
2019-04-05T22:38:57.536Z,19.67
2019-04-05T22:44:02.252Z,18.83
2019-04-05T22:49:06.805Z,18.63
2019-04-05T22:54:12.682Z,21.50
2019-04-05T22:59:17.228Z,23.10
2019-04-05T23:04:23.032Z,20.87
2019-04-05T23:09:30.682Z,19.93
2019-04-05T23:14:36.786Z,19.97
2019-04-05T23:19:41.404Z,19.70
2019-04-05T23:24:46.196Z,18.87
2019-04-05T23:29:50.748Z,19.60
2019-04-05T23:34:56.455Z,18.93
2019-04-05T23:40:01.031Z,17.87
2019-04-05T23:45:06.729Z,19.70
2019-04-05T23:50:11.280Z,20.67
2019-04-05T23:55:15.868Z,18.77
